sensor_id;sensor_type;location;lat;lon;timestamp;pressure;altitude;pressure_sealevel;temperature;humidity
34921;BME280;21128;50.016;20.002;2022-12-10T00:01:56;97461.59;;;0.43;100.00
34921;BME280;21128;50.016;20.002;2022-12-10T00:04:49;97474.16;;;0.48;100.00
34921;BME280;21128;50.016;20.002;2022-12-10T00:07:34;97475.92;;;0.47;100.00
34921;BME280;21128;50.016;20.002;2022-12-10T00:10:20;97474.27;;;0.46;100.00
34921;BME280;21128;50.016;20.002;2022-12-10T00:13:05;97471.57;;;0.48;100.00
34921;BME280;21128;50.016;20.002;2022-12-10T00:15:51;97470.75;;;0.47;100.00
34921;BME280;21128;50.016;20.002;2022-12-10T00:18:37;97481.91;;;0.48;100.00
34921;BME280;21128;50.016;20.002;2022-12-10T00:21:28;97478.63;;;0.46;100.00
34921;BME280;21128;50.016;20.002;2022-12-10T00:24:14;97485.87;;;0.41;100.00
34921;BME280;21128;50.016;20.002;2022-12-10T00:27:00;97480.62;;;0.42;100.00
34921;BME280;21128;50.016;20.002;2022-12-10T00:29:46;97479.67;;;0.43;100.00
34921;BME280;21128;50.016;20.002;2022-12-10T00:32:31;97491.78;;;0.43;100.00
34921;BME280;21128;50.016;20.002;2022-12-10T00:35:17;97490.22;;;0.40;100.00
34921;BME280;21128;50.016;20.002;2022-12-10T00:38:03;97487.75;;;0.39;100.00
34921;BME280;21128;50.016;20.002;2022-12-10T00:40:48;97493.98;;;0.36;100.00
34921;BME280;21128;50.016;20.002;2022-12-10T00:43:34;97490.69;;;0.34;100.00
34921;BME280;21128;50.016;20.002;2022-12-10T00:46:27;97491.59;;;0.33;100.00
34921;BME280;21128;50.016;20.002;2022-12-10T00:49:20;97488.19;;;0.33;100.00
34921;BME280;21128;50.016;20.002;2022-12-10T00:52:08;97496.77;;;0.33;100.00
34921;BME280;21128;50.016;20.002;2022-12-10T00:55:06;97495.23;;;0.31;100.00
34921;BME280;21128;50.016;20.002;2022-12-10T00:57:52;97491.00;;;0.30;100.00
34921;BME280;21128;50.016;20.002;2022-12-10T01:00:38;97495.67;;;0.24;100.00
34921;BME280;21128;50.016;20.002;2022-12-10T01:03:23;97495.67;;;0.24;100.00
34921;BME280;21128;50.016;20.002;2022-12-10T01:06:15;97498.25;;;0.24;100.00
34921;BME280;21128;50.016;20.002;2022-12-10T01:09:10;97498.98;;;0.26;100.00
34921;BME280;21128;50.016;20.002;2022-12-10T01:12:00;97495.35;;;0.29;100.00
34921;BME280;21128;50.016;20.002;2022-12-10T01:14:49;97495.86;;;0.34;100.00
34921;BME280;21128;50.016;20.002;2022-12-10T01:17:35;97502.75;;;0.34;100.00
34921;BME280;21128;50.016;20.002;2022-12-10T01:20:20;97489.75;;;0.35;100.00
34921;BME280;21128;50.016;20.002;2022-12-10T01:23:06;97503.48;;;0.36;100.00
34921;BME280;21128;50.016;20.002;2022-12-10T01:25:51;97505.84;;;0.39;100.00
34921;BME280;21128;50.016;20.002;2022-12-10T01:28:39;97495.63;;;0.37;100.00
34921;BME280;21128;50.016;20.002;2022-12-10T01:31:36;97505.84;;;0.39;100.00
34921;BME280;21128;50.016;20.002;2022-12-10T01:34:23;97505.02;;;0.38;100.00
34921;BME280;21128;50.016;20.002;2022-12-10T01:37:10;97510.06;;;0.40;100.00
34921;BME280;21128;50.016;20.002;2022-12-10T01:39:56;97511.63;;;0.42;100.00
34921;BME280;21128;50.016;20.002;2022-12-10T01:42:42;97516.68;;;0.44;100.00
34921;BME280;21128;50.016;20.002;2022-12-10T01:45:28;97515.03;;;0.43;100.00
34921;BME280;21128;50.016;20.002;2022-12-10T01:48:14;97520.20;;;0.43;100.00
34921;BME280;21128;50.016;20.002;2022-12-10T01:50:59;97521.11;;;0.42;100.00
34921;BME280;21128;50.016;20.002;2022-12-10T01:53:45;97520.41;;;0.40;100.00
34921;BME280;21128;50.016;20.002;2022-12-10T01:56:42;97522.28;;;0.38;100.00
34921;BME280;21128;50.016;20.002;2022-12-10T01:59:29;97523.22;;;0.37;100.00
34921;BME280;21128;50.016;20.002;2022-12-10T02:02:53;97522.52;;;0.35;100.00
34921;BME280;21128;50.016;20.002;2022-12-10T02:05:51;97526.86;;;0.34;100.00
34921;BME280;21128;50.016;20.002;2022-12-10T02:15:15;97527.45;;;0.38;100.00
34921;BME280;21128;50.016;20.002;2022-12-10T02:18:07;97526.39;;;0.40;100.00
34921;BME280;21128;50.016;20.002;2022-12-10T02:21:02;97521.23;;;0.40;100.00
34921;BME280;21128;50.016;20.002;2022-12-10T02:23:54;97523.81;;;0.40;100.00
34921;BME280;21128;50.016;20.002;2022-12-10T02:29:51;97520.41;;;0.40;100.00
34921;BME280;21128;50.016;20.002;2022-12-10T02:32:45;97517.11;;;0.38;100.00
34921;BME280;21128;50.016;20.002;2022-12-10T02:35:41;97520.41;;;0.40;100.00
34921;BME280;21128;50.016;20.002;2022-12-10T02:38:30;97532.50;;;0.39;100.00
34921;BME280;21128;50.016;20.002;2022-12-10T02:41:22;97537.67;;;0.39;100.00
34921;BME280;21128;50.016;20.002;2022-12-10T02:44:12;97541.91;;;0.40;100.00
34921;BME280;21128;50.016;20.002;2022-12-10T02:47:00;97543.55;;;0.41;100.00
34921;BME280;21128;50.016;20.002;2022-12-10T02:49:49;97547.81;;;0.42;100.00
34921;BME280;21128;50.016;20.002;2022-12-10T02:52:36;97549.53;;;0.42;100.00
34921;BME280;21128;50.016;20.002;2022-12-10T03:01:54;97555.77;;;0.39;100.00
34921;BME280;21128;50.016;20.002;2022-12-10T03:05:14;97552.13;;;0.42;100.00
34921;BME280;21128;50.016;20.002;2022-12-10T03:08:34;97552.03;;;0.43;100.00
34921;BME280;21128;50.016;20.002;2022-12-10T03:11:24;97558.73;;;0.46;100.00
34921;BME280;21128;50.016;20.002;2022-12-10T03:14:18;97542.29;;;0.47;100.00
34921;BME280;21128;50.016;20.002;2022-12-10T03:17:05;97560.50;;;0.45;100.00
34921;BME280;21128;50.016;20.002;2022-12-10T03:19:52;97561.32;;;0.46;100.00
34921;BME280;21128;50.016;20.002;2022-12-10T03:22:40;97559.67;;;0.45;100.00
34921;BME280;21128;50.016;20.002;2022-12-10T03:25:29;97559.67;;;0.45;100.00
34921;BME280;21128;50.016;20.002;2022-12-10T03:28:18;97545.93;;;0.44;100.00
34921;BME280;21128;50.016;20.002;2022-12-10T03:31:06;97560.50;;;0.45;100.00
34921;BME280;21128;50.016;20.002;2022-12-10T03:34:01;97564.84;;;0.45;100.00
34921;BME280;21128;50.016;20.002;2022-12-10T03:36:48;97565.55;;;0.47;100.00
34921;BME280;21128;50.016;20.002;2022-12-10T03:39:35;97567.31;;;0.46;100.00
34921;BME280;21128;50.016;20.002;2022-12-10T03:42:21;97562.97;;;0.47;100.00
34921;BME280;21128;50.016;20.002;2022-12-10T03:45:07;97564.61;;;0.48;100.00
34921;BME280;21128;50.016;20.002;2022-12-10T03:47:53;97558.50;;;0.49;100.00
34921;BME280;21128;50.016;20.002;2022-12-10T03:50:38;97562.73;;;0.50;100.00
34921;BME280;21128;50.016;20.002;2022-12-10T03:53:24;97573.81;;;0.52;100.00
34921;BME280;21128;50.016;20.002;2022-12-10T03:56:18;97577.34;;;0.51;100.00
34921;BME280;21128;50.016;20.002;2022-12-10T03:59:03;97575.45;;;0.53;100.00
34921;BME280;21128;50.016;20.002;2022-12-10T04:02:02;97582.27;;;0.54;100.00
34921;BME280;21128;50.016;20.002;2022-12-10T04:04:48;97592.61;;;0.54;100.00
34921;BME280;21128;50.016;20.002;2022-12-10T04:07:40;97594.14;;;0.56;100.00
34921;BME280;21128;50.016;20.002;2022-12-10T04:10:25;97594.03;;;0.58;100.00
34921;BME280;21128;50.016;20.002;2022-12-10T04:13:11;97598.29;;;0.59;100.00
34921;BME280;21128;50.016;20.002;2022-12-10T04:16:16;97614.63;;;0.60;100.00
34921;BME280;21128;50.016;20.002;2022-12-10T04:19:16;97617.09;;;0.61;100.00
34921;BME280;21128;50.016;20.002;2022-12-10T04:22:03;97613.56;;;0.62;100.00
34921;BME280;21128;50.016;20.002;2022-12-10T04:25:10;97630.02;;;0.61;100.00
34921;BME280;21128;50.016;20.002;2022-12-10T04:28:16;97628.38;;;0.60;100.00
34921;BME280;21128;50.016;20.002;2022-12-10T04:31:01;97635.39;;;0.58;100.00
34921;BME280;21128;50.016;20.002;2022-12-10T04:33:46;97625.16;;;0.56;100.00
34921;BME280;21128;50.016;20.002;2022-12-10T04:36:38;97618.23;;;0.57;100.00
34921;BME280;21128;50.016;20.002;2022-12-10T04:39:24;97617.29;;;0.58;100.00
34921;BME280;21128;50.016;20.002;2022-12-10T04:42:10;97603.45;;;0.59;100.00
34921;BME280;21128;50.016;20.002;2022-12-10T04:44:56;97606.87;;;0.60;100.00
34921;BME280;21128;50.016;20.002;2022-12-10T04:47:42;97606.87;;;0.60;100.00
34921;BME280;21128;50.016;20.002;2022-12-10T04:50:27;97619.80;;;0.60;100.00
34921;BME280;21128;50.016;20.002;2022-12-10T04:53:13;97628.45;;;0.59;100.00
34921;BME280;21128;50.016;20.002;2022-12-10T04:56:19;97638.91;;;0.57;100.00
34921;BME280;21128;50.016;20.002;2022-12-10T04:59:05;97637.38;;;0.54;100.00
34921;BME280;21128;50.016;20.002;2022-12-10T05:01:57;97641.72;;;0.54;100.00
34921;BME280;21128;50.016;20.002;2022-12-10T05:04:43;97636.55;;;0.54;100.00
34921;BME280;21128;50.016;20.002;2022-12-10T05:07:35;97634.79;;;0.54;100.00
34921;BME280;21128;50.016;20.002;2022-12-10T05:10:20;97636.44;;;0.55;100.00
34921;BME280;21128;50.016;20.002;2022-12-10T05:13:06;97626.22;;;0.54;100.00
34921;BME280;21128;50.016;20.002;2022-12-10T05:15:51;97635.61;;;0.55;100.00
34921;BME280;21128;50.016;20.002;2022-12-10T05:18:37;97645.95;;;0.55;100.00
34921;BME280;21128;50.016;20.002;2022-12-10T05:21:25;97647.72;;;0.54;100.00
34921;BME280;21128;50.016;20.002;2022-12-10T05:24:31;97657.23;;;0.54;100.00
34921;BME280;21128;50.016;20.002;2022-12-10T05:27:23;97662.40;;;0.54;100.00
34921;BME280;21128;50.016;20.002;2022-12-10T05:30:09;97682.85;;;0.57;100.00
34921;BME280;21128;50.016;20.002;2022-12-10T05:32:55;97685.44;;;0.57;100.00
34921;BME280;21128;50.016;20.002;2022-12-10T05:35:41;97696.72;;;0.56;100.00
34921;BME280;21128;50.016;20.002;2022-12-10T05:38:29;97700.23;;;0.55;100.00
34921;BME280;21128;50.016;20.002;2022-12-10T05:41:18;97705.41;;;0.55;100.00
34921;BME280;21128;50.016;20.002;2022-12-10T05:44:04;97702.70;;;0.56;100.00
34921;BME280;21128;50.016;20.002;2022-12-10T05:46:51;97698.36;;;0.57;100.00
34921;BME280;21128;50.016;20.002;2022-12-10T05:49:37;97699.19;;;0.58;100.00
34921;BME280;21128;50.016;20.002;2022-12-10T05:52:22;97698.17;;;0.60;100.00
34921;BME280;21128;50.016;20.002;2022-12-10T05:55:21;97699.10;;;0.59;100.00
34921;BME280;21128;50.016;20.002;2022-12-10T05:58:06;97686.38;;;0.56;100.00
34921;BME280;21128;50.016;20.002;2022-12-10T06:00:52;97670.05;;;0.55;100.00
34921;BME280;21128;50.016;20.002;2022-12-10T06:03:44;97668.98;;;0.58;100.00
34921;BME280;21128;50.016;20.002;2022-12-10T06:06:33;97658.45;;;0.61;100.00
34921;BME280;21128;50.016;20.002;2022-12-10T06:09:19;97666.20;;;0.61;100.00
34921;BME280;21128;50.016;20.002;2022-12-10T06:12:05;97670.67;;;0.59;100.00
34921;BME280;21128;50.016;20.002;2022-12-10T06:14:51;97663.73;;;0.60;100.00
34921;BME280;21128;50.016;20.002;2022-12-10T06:17:37;97661.03;;;0.61;100.00
34921;BME280;21128;50.016;20.002;2022-12-10T06:20:23;97661.86;;;0.62;100.00
34921;BME280;21128;50.016;20.002;2022-12-10T06:23:09;97672.09;;;0.63;100.00
34921;BME280;21128;50.016;20.002;2022-12-10T06:26:12;97667.14;;;0.60;100.00
34921;BME280;21128;50.016;20.002;2022-12-10T06:28:58;97686.06;;;0.61;100.00
34921;BME280;21128;50.016;20.002;2022-12-10T06:31:45;97705.92;;;0.60;100.00
34921;BME280;21128;50.016;20.002;2022-12-10T06:34:31;97695.47;;;0.62;100.00
34921;BME280;21128;50.016;20.002;2022-12-10T06:37:23;97685.95;;;0.62;100.00
34921;BME280;21128;50.016;20.002;2022-12-10T06:40:09;97702.17;;;0.64;100.00
34921;BME280;21128;50.016;20.002;2022-12-10T06:42:55;97718.62;;;0.63;100.00
34921;BME280;21128;50.016;20.002;2022-12-10T06:45:41;97716.75;;;0.65;100.00
34921;BME280;21128;50.016;20.002;2022-12-10T06:48:26;97722.63;;;0.67;100.00
34921;BME280;21128;50.016;20.002;2022-12-10T06:51:13;97723.38;;;0.69;100.00
34921;BME280;21128;50.016;20.002;2022-12-10T06:53:59;97729.97;;;0.73;100.00
34921;BME280;21128;50.016;20.002;2022-12-10T06:56:57;97732.44;;;0.75;100.00
34921;BME280;21128;50.016;20.002;2022-12-10T06:59:43;97746.70;;;0.80;100.00
34921;BME280;21128;50.016;20.002;2022-12-10T07:02:35;97756.00;;;0.83;100.00
34921;BME280;21128;50.016;20.002;2022-12-10T07:05:21;97760.03;;;0.87;100.00
34921;BME280;21128;50.016;20.002;2022-12-10T07:08:06;97775.21;;;0.92;100.00
34921;BME280;21128;50.016;20.002;2022-12-10T07:10:52;97776.67;;;0.96;100.00
34921;BME280;21128;50.016;20.002;2022-12-10T07:13:38;97771.97;;;1.01;100.00
34921;BME280;21128;50.016;20.002;2022-12-10T07:16:32;97757.20;;;1.03;100.00
34921;BME280;21128;50.016;20.002;2022-12-10T07:19:18;97753.67;;;1.04;100.00
34921;BME280;21128;50.016;20.002;2022-12-10T07:22:10;97764.13;;;1.02;100.00
34921;BME280;21128;50.016;20.002;2022-12-10T07:24:55;97756.45;;;1.01;100.00
34921;BME280;21128;50.016;20.002;2022-12-10T07:27:41;97757.51;;;0.98;100.00
34921;BME280;21128;50.016;20.002;2022-12-10T07:30:27;97764.67;;;0.95;100.00
34921;BME280;21128;50.016;20.002;2022-12-10T07:33:12;97767.26;;;0.95;100.00
34921;BME280;21128;50.016;20.002;2022-12-10T07:36:06;97769.84;;;0.95;100.00
34921;BME280;21128;50.016;20.002;2022-12-10T07:38:53;97775.95;;;0.94;100.00
34921;BME280;21128;50.016;20.002;2022-12-10T07:41:39;97779.37;;;0.94;100.00
34921;BME280;21128;50.016;20.002;2022-12-10T07:44:25;97771.61;;;0.94;100.00
34921;BME280;21128;50.016;20.002;2022-12-10T07:47:11;97774.31;;;0.93;100.00
34921;BME280;21128;50.016;20.002;2022-12-10T07:49:57;97774.39;;;0.91;100.00
34921;BME280;21128;50.016;20.002;2022-12-10T07:52:42;97763.22;;;0.91;100.00
34921;BME280;21128;50.016;20.002;2022-12-10T07:55:48;97754.33;;;0.95;100.00
34921;BME280;21128;50.016;20.002;2022-12-10T07:58:34;97756.57;;;0.99;100.00
34921;BME280;21128;50.016;20.002;2022-12-10T08:01:23;97748.50;;;1.04;100.00
34921;BME280;21128;50.016;20.002;2022-12-10T08:04:09;97754.61;;;1.03;100.00
34921;BME280;21128;50.016;20.002;2022-12-10T08:06:55;97763.19;;;1.03;100.00
34921;BME280;21128;50.016;20.002;2022-12-10T08:09:42;97767.55;;;1.03;100.00
34921;BME280;21128;50.016;20.002;2022-12-10T08:12:28;97767.03;;;0.98;100.00
34921;BME280;21128;50.016;20.002;2022-12-10T08:15:13;97774.50;;;0.90;100.00
34921;BME280;21128;50.016;20.002;2022-12-10T08:17:59;97780.92;;;0.84;100.00
34921;BME280;21128;50.016;20.002;2022-12-10T08:20:44;97782.08;;;0.80;100.00
34921;BME280;21128;50.016;20.002;2022-12-10T08:23:43;97784.98;;;0.75;100.00
34921;BME280;21128;50.016;20.002;2022-12-10T08:26:35;97794.50;;;0.75;100.00
34921;BME280;21128;50.016;20.002;2022-12-10T08:29:21;97797.19;;;0.73;100.00
34921;BME280;21128;50.016;20.002;2022-12-10T08:32:06;97793.67;;;0.74;100.00
34921;BME280;21128;50.016;20.002;2022-12-10T08:34:52;97793.67;;;0.74;100.00
34921;BME280;21128;50.016;20.002;2022-12-10T08:37:41;97796.48;;;0.71;100.00
34921;BME280;21128;50.016;20.002;2022-12-10T08:40:26;97805.17;;;0.70;100.00
34921;BME280;21128;50.016;20.002;2022-12-10T08:43:12;97808.58;;;0.71;100.00
34921;BME280;21128;50.016;20.002;2022-12-10T08:45:58;97800.60;;;0.74;100.00
34921;BME280;21128;50.016;20.002;2022-12-10T08:48:44;97794.41;;;0.76;100.00
34921;BME280;21128;50.016;20.002;2022-12-10T08:51:30;97796.77;;;0.79;100.00
34921;BME280;21128;50.016;20.002;2022-12-10T08:54:15;97789.73;;;0.81;100.00
34921;BME280;21128;50.016;20.002;2022-12-10T08:57:14;97781.03;;;0.82;100.00
34921;BME280;21128;50.016;20.002;2022-12-10T08:59:59;97786.02;;;0.86;100.00
34921;BME280;21128;50.016;20.002;2022-12-10T09:02:45;97788.38;;;0.89;100.00
34921;BME280;21128;50.016;20.002;2022-12-10T09:05:31;97790.84;;;0.90;100.00
34921;BME280;21128;50.016;20.002;2022-12-10T09:08:26;97789.91;;;0.91;100.00
34921;BME280;21128;50.016;20.002;2022-12-10T09:11:24;97795.71;;;0.95;100.00
34921;BME280;21128;50.016;20.002;2022-12-10T09:14:11;97797.25;;;0.97;100.00
34921;BME280;21128;50.016;20.002;2022-12-10T09:16:57;97795.26;;;1.01;100.00
34921;BME280;21128;50.016;20.002;2022-12-10T09:19:43;97789.06;;;1.03;100.00
34921;BME280;21128;50.016;20.002;2022-12-10T09:22:28;97785.53;;;1.04;100.00
34921;BME280;21128;50.016;20.002;2022-12-10T09:25:21;97780.13;;;1.07;100.00
34921;BME280;21128;50.016;20.002;2022-12-10T09:28:07;97776.72;;;1.07;100.00
34921;BME280;21128;50.016;20.002;2022-12-10T09:30:57;97775.19;;;1.04;100.00
34921;BME280;21128;50.016;20.002;2022-12-10T09:33:43;97777.66;;;1.06;100.00
34921;BME280;21128;50.016;20.002;2022-12-10T09:36:30;97771.35;;;1.10;100.00
34921;BME280;21128;50.016;20.002;2022-12-10T09:39:15;97778.06;;;1.12;100.00
34921;BME280;21128;50.016;20.002;2022-12-10T09:53:55;97779.00;;;1.11;100.00
34921;BME280;21128;50.016;20.002;2022-12-10T09:56:44;97771.23;;;1.11;100.00
34921;BME280;21128;50.016;20.002;2022-12-10T09:59:40;97770.19;;;1.14;100.00
34921;BME280;21128;50.016;20.002;2022-12-10T10:02:29;97761.72;;;1.12;100.00
34921;BME280;21128;50.016;20.002;2022-12-10T10:05:27;97765.13;;;1.12;100.00
34921;BME280;21128;50.016;20.002;2022-12-10T10:08:33;97770.06;;;1.16;100.00
34921;BME280;21128;50.016;20.002;2022-12-10T10:11:24;97770.78;;;1.18;100.00
34921;BME280;21128;50.016;20.002;2022-12-10T10:14:14;97769.88;;;1.19;100.00
34921;BME280;21128;50.016;20.002;2022-12-10T10:17:09;97763.64;;;1.21;100.00
34921;BME280;21128;50.016;20.002;2022-12-10T10:19:57;97765.60;;;1.18;100.00
34921;BME280;21128;50.016;20.002;2022-12-10T10:22:43;97767.37;;;1.17;100.00
34921;BME280;21128;50.016;20.002;2022-12-10T10:25:36;97764.78;;;1.17;100.00
34921;BME280;21128;50.016;20.002;2022-12-10T10:28:23;97756.11;;;1.18;100.00
34921;BME280;21128;50.016;20.002;2022-12-10T10:31:22;97759.28;;;1.22;100.00
34921;BME280;21128;50.016;20.002;2022-12-10T10:34:17;97764.23;;;1.25;100.00
34921;BME280;21128;50.016;20.002;2022-12-10T10:37:03;97755.45;;;1.27;100.00
34921;BME280;21128;50.016;20.002;2022-12-10T10:39:50;97753.56;;;1.29;100.00
34921;BME280;21128;50.016;20.002;2022-12-10T10:42:38;97747.22;;;1.33;100.00
34921;BME280;21128;50.016;20.002;2022-12-10T10:45:48;97754.04;;;1.34;100.00
34921;BME280;21128;50.016;20.002;2022-12-10T10:48:41;97742.98;;;1.32;100.00
34921;BME280;21128;50.016;20.002;2022-12-10T10:51:27;97755.21;;;1.30;100.00
34921;BME280;21128;50.016;20.002;2022-12-10T10:54:40;97750.03;;;1.30;100.00
34921;BME280;21128;50.016;20.002;2022-12-10T10:57:32;97754.16;;;1.33;100.00
34921;BME280;21128;50.016;20.002;2022-12-10T11:00:25;97754.04;;;1.34;100.00
34921;BME280;21128;50.016;20.002;2022-12-10T11:03:11;97765.33;;;1.33;100.00
34921;BME280;21128;50.016;20.002;2022-12-10T11:05:58;97769.56;;;1.34;100.00
34921;BME280;21128;50.016;20.002;2022-12-10T11:08:45;97771.02;;;1.38;100.00
34921;BME280;21128;50.016;20.002;2022-12-10T11:11:50;97759.72;;;1.39;100.00
34921;BME280;21128;50.016;20.002;2022-12-10T11:14:40;97766.55;;;1.40;100.00
34921;BME280;21128;50.016;20.002;2022-12-10T11:17:29;97770.90;;;1.40;100.00
34921;BME280;21128;50.016;20.002;2022-12-10T11:20:32;97771.84;;;1.39;100.00
34921;BME280;21128;50.016;20.002;2022-12-10T11:23:18;97768.42;;;1.38;100.00
34921;BME280;21128;50.016;20.002;2022-12-10T11:29:36;97767.17;;;1.44;100.00
34921;BME280;21128;50.016;20.002;2022-12-10T11:32:49;97769.76;;;1.44;100.00
34921;BME280;21128;50.016;20.002;2022-12-10T11:38:50;97765.52;;;1.43;100.00
34921;BME280;21128;50.016;20.002;2022-12-10T11:41:57;97763.25;;;1.38;100.00
34921;BME280;21128;50.016;20.002;2022-12-10T11:45:02;97766.42;;;1.42;100.00
34921;BME280;21128;50.016;20.002;2022-12-10T11:51:06;97769.13;;;1.40;100.00
34921;BME280;21128;50.016;20.002;2022-12-10T11:57:11;97763.48;;;1.35;100.00
34921;BME280;21128;50.016;20.002;2022-12-10T12:00:19;97769.37;;;1.37;100.00
34921;BME280;21128;50.016;20.002;2022-12-10T12:03:40;97760.42;;;1.41;100.00
34921;BME280;21128;50.016;20.002;2022-12-10T12:13:13;97763.13;;;1.40;100.00
34921;BME280;21128;50.016;20.002;2022-12-10T12:16:03;97755.09;;;1.32;100.00
34921;BME280;21128;50.016;20.002;2022-12-10T12:19:14;97764.34;;;1.23;100.00
34921;BME280;21128;50.016;20.002;2022-12-10T12:22:18;97760.34;;;1.19;100.00
34921;BME280;21128;50.016;20.002;2022-12-10T12:25:40;97755.48;;;1.15;100.00
34921;BME280;21128;50.016;20.002;2022-12-10T12:28:43;97755.37;;;1.16;100.00
34921;BME280;21128;50.016;20.002;2022-12-10T12:31:39;97750.19;;;1.16;100.00
34921;BME280;21128;50.016;20.002;2022-12-10T12:35:02;97757.95;;;1.16;100.00
34921;BME280;21128;50.016;20.002;2022-12-10T12:37:56;97747.13;;;1.11;100.00
34921;BME280;21128;50.016;20.002;2022-12-10T12:40:51;97731.80;;;1.08;100.00
34921;BME280;21128;50.016;20.002;2022-12-10T12:44:08;97734.51;;;1.06;100.00
34921;BME280;21128;50.016;20.002;2022-12-10T12:47:16;97744.54;;;1.11;100.00
34921;BME280;21128;50.016;20.002;2022-12-10T12:53:09;97745.95;;;1.15;100.00
34921;BME280;21128;50.016;20.002;2022-12-10T12:56:02;97749.25;;;1.17;100.00
34921;BME280;21128;50.016;20.002;2022-12-10T12:59:15;97750.94;;;1.18;100.00
34921;BME280;21128;50.016;20.002;2022-12-10T13:02:25;97747.48;;;1.18;100.00
34921;BME280;21128;50.016;20.002;2022-12-10T13:05:15;97753.01;;;1.13;100.00
34921;BME280;21128;50.016;20.002;2022-12-10T13:14:16;97755.15;;;0.95;100.00
34921;BME280;21128;50.016;20.002;2022-12-10T13:20:29;97772.85;;;0.89;100.00
34921;BME280;21128;50.016;20.002;2022-12-10T13:26:26;97785.08;;;0.87;100.00
34921;BME280;21128;50.016;20.002;2022-12-10T13:29:26;97787.44;;;0.90;100.00
34921;BME280;21128;50.016;20.002;2022-12-10T13:32:24;97791.67;;;0.91;100.00
34921;BME280;21128;50.016;20.002;2022-12-10T13:35:30;97796.84;;;0.91;100.00
34921;BME280;21128;50.016;20.002;2022-12-10T13:38:20;97800.25;;;0.91;100.00
34921;BME280;21128;50.016;20.002;2022-12-10T13:41:07;97793.55;;;0.89;100.00
34921;BME280;21128;50.016;20.002;2022-12-10T13:44:34;97792.61;;;0.90;100.00
34921;BME280;21128;50.016;20.002;2022-12-10T13:50:40;97793.55;;;0.89;100.00
34921;BME280;21128;50.016;20.002;2022-12-10T13:56:46;97794.41;;;0.76;100.00
34921;BME280;21128;50.016;20.002;2022-12-10T14:00:03;97798.13;;;0.72;100.00
34921;BME280;21128;50.016;20.002;2022-12-10T14:03:21;97800.00;;;0.70;100.00
34921;BME280;21128;50.016;20.002;2022-12-10T14:06:21;97801.88;;;0.68;100.00
34921;BME280;21128;50.016;20.002;2022-12-10T14:12:06;97806.63;;;0.62;100.00
34921;BME280;21128;50.016;20.002;2022-12-10T14:14:59;97816.86;;;0.63;100.00
34921;BME280;21128;50.016;20.002;2022-12-10T14:18:13;97811.69;;;0.63;100.00
34921;BME280;21128;50.016;20.002;2022-12-10T14:21:07;97806.74;;;0.60;100.00
34921;BME280;21128;50.016;20.002;2022-12-10T14:23:53;97812.92;;;0.58;100.00
34921;BME280;21128;50.016;20.002;2022-12-10T14:26:39;97806.94;;;0.57;100.00
34921;BME280;21128;50.016;20.002;2022-12-10T14:29:24;97804.45;;;0.55;100.00
34921;BME280;21128;50.016;20.002;2022-12-10T14:32:15;97804.57;;;0.54;100.00
34921;BME280;21128;50.016;20.002;2022-12-10T14:35:04;97811.61;;;0.52;100.00
34921;BME280;21128;50.016;20.002;2022-12-10T14:37:52;97814.19;;;0.52;100.00
34921;BME280;21128;50.016;20.002;2022-12-10T14:40:41;97815.20;;;0.49;100.00
34921;BME280;21128;50.016;20.002;2022-12-10T14:43:38;97811.91;;;0.47;100.00
34921;BME280;21128;50.016;20.002;2022-12-10T14:46:32;97799.92;;;0.46;100.00
34921;BME280;21128;50.016;20.002;2022-12-10T14:49:26;97800.96;;;0.44;100.00
34921;BME280;21128;50.016;20.002;2022-12-10T14:55:03;97813.06;;;0.43;100.00
34921;BME280;21128;50.016;20.002;2022-12-10T14:57:54;97821.42;;;0.47;100.00
34921;BME280;21128;50.016;20.002;2022-12-10T15:00:55;97810.86;;;0.50;100.00
34921;BME280;21128;50.016;20.002;2022-12-10T15:03:45;97819.25;;;0.53;100.00
34921;BME280;21128;50.016;20.002;2022-12-10T15:06:36;97822.44;;;0.57;100.00
34921;BME280;21128;50.016;20.002;2022-12-10T15:09:30;97805.17;;;0.58;100.00
34921;BME280;21128;50.016;20.002;2022-12-10T15:12:37;97803.63;;;0.55;100.00
34921;BME280;21128;50.016;20.002;2022-12-10T15:18:35;97809.84;;;0.52;100.00
34921;BME280;21128;50.016;20.002;2022-12-10T15:21:25;97810.56;;;0.54;100.00
34921;BME280;21128;50.016;20.002;2022-12-10T15:24:20;97814.69;;;0.57;100.00
34921;BME280;21128;50.016;20.002;2022-12-10T15:27:24;97815.63;;;0.56;100.00
34921;BME280;21128;50.016;20.002;2022-12-10T15:30:42;97812.44;;;0.52;100.00
34921;BME280;21128;50.016;20.002;2022-12-10T15:33:45;97814.38;;;0.49;100.00
34921;BME280;21128;50.016;20.002;2022-12-10T15:39:52;97824.52;;;0.39;100.00
34921;BME280;21128;50.016;20.002;2022-12-10T15:42:44;97823.80;;;0.37;100.00
34921;BME280;21128;50.016;20.002;2022-12-10T15:45:41;97830.52;;;0.40;100.00
34921;BME280;21128;50.016;20.002;2022-12-10T15:48:29;97831.34;;;0.40;100.00
34921;BME280;21128;50.016;20.002;2022-12-10T15:51:21;97821.11;;;0.39;100.00
34921;BME280;21128;50.016;20.002;2022-12-10T15:54:37;97818.64;;;0.37;100.00
34921;BME280;21128;50.016;20.002;2022-12-10T15:57:35;97823.80;;;0.37;100.00
34921;BME280;21128;50.016;20.002;2022-12-10T16:00:33;97820.50;;;0.35;100.00
34921;BME280;21128;50.016;20.002;2022-12-10T16:03:20;97816.34;;;0.33;100.00
34921;BME280;21128;50.016;20.002;2022-12-10T16:06:07;97824.31;;;0.30;100.00
34921;BME280;21128;50.016;20.002;2022-12-10T16:08:52;97823.78;;;0.24;100.00
34921;BME280;21128;50.016;20.002;2022-12-10T16:11:38;97818.73;;;0.23;100.00
34921;BME280;21128;50.016;20.002;2022-12-10T16:14:25;97821.31;;;0.23;100.00
34921;BME280;21128;50.016;20.002;2022-12-10T16:17:18;97812.73;;;0.22;100.00
34921;BME280;21128;50.016;20.002;2022-12-10T16:20:24;97816.25;;;0.21;100.00